sensor_id;sensor_type;location;lat;lon;timestamp;pressure;altitude;pressure_sealevel;temperature;humidity
11444;BME280;5778;47.856;12.154;2023-05-09T00:00:15;96658.75;;;11.84;100.00
11444;BME280;5778;47.856;12.154;2023-05-09T00:02:44;96673.19;;;11.88;100.00
11444;BME280;5778;47.856;12.154;2023-05-09T00:08:34;96660.88;;;11.82;100.00
11444;BME280;5778;47.856;12.154;2023-05-09T00:11:02;96657.69;;;11.85;100.00
11444;BME280;5778;47.856;12.154;2023-05-09T00:13:29;96659.69;;;11.73;100.00
11444;BME280;5778;47.856;12.154;2023-05-09T00:15:56;96651.06;;;11.61;100.00
11444;BME280;5778;47.856;12.154;2023-05-09T00:18:25;96648.84;;;11.58;100.00
11444;BME280;5778;47.856;12.154;2023-05-09T00:20:52;96649.53;;;11.70;100.00
11444;BME280;5778;47.856;12.154;2023-05-09T00:23:23;96652.25;;;11.75;100.00
11444;BME280;5778;47.856;12.154;2023-05-09T00:25:51;96650.09;;;11.72;100.00
11444;BME280;5778;47.856;12.154;2023-05-09T00:28:17;96646.03;;;11.64;100.00
11444;BME280;5778;47.856;12.154;2023-05-09T00:30:44;96642.06;;;11.67;100.00
11444;BME280;5778;47.856;12.154;2023-05-09T00:33:11;96642.00;;;11.62;100.00
11444;BME280;5778;47.856;12.154;2023-05-09T00:35:40;96633.50;;;11.43;100.00
11444;BME280;5778;47.856;12.154;2023-05-09T00:38:07;96639.13;;;11.47;100.00
11444;BME280;5778;47.856;12.154;2023-05-09T00:40:34;96632.63;;;11.38;100.00
11444;BME280;5778;47.856;12.154;2023-05-09T00:43:01;96627.81;;;11.35;100.00
11444;BME280;5778;47.856;12.154;2023-05-09T00:45:29;96629.69;;;11.13;100.00
11444;BME280;5778;47.856;12.154;2023-05-09T00:47:56;96632.94;;;11.20;100.00
11444;BME280;5778;47.856;12.154;2023-05-09T00:50:23;96627.09;;;11.18;100.00
11444;BME280;5778;47.856;12.154;2023-05-09T00:52:51;96627.63;;;11.20;100.00
11444;BME280;5778;47.856;12.154;2023-05-09T00:58:40;96627.03;;;11.13;100.00
11444;BME280;5778;47.856;12.154;2023-05-09T01:01:08;96618.97;;;11.08;100.00
11444;BME280;5778;47.856;12.154;2023-05-09T01:03:45;96613.09;;;11.06;100.00
11444;BME280;5778;47.856;12.154;2023-05-09T01:06:18;96609.63;;;11.05;100.00
11444;BME280;5778;47.856;12.154;2023-05-09T01:08:55;96620.13;;;10.95;100.00
11444;BME280;5778;47.856;12.154;2023-05-09T01:11:30;96609.72;;;10.72;100.00
11444;BME280;5778;47.856;12.154;2023-05-09T01:14:14;96618.31;;;10.79;100.00
11444;BME280;5778;47.856;12.154;2023-05-09T01:16:48;96613.31;;;10.83;100.00
11444;BME280;5778;47.856;12.154;2023-05-09T01:19:35;96615.34;;;10.76;100.00
11444;BME280;5778;47.856;12.154;2023-05-09T01:22:07;96619.13;;;10.80;100.00
11444;BME280;5778;47.856;12.154;2023-05-09T01:24:54;96611.72;;;10.82;100.00
11444;BME280;5778;47.856;12.154;2023-05-09T01:27:38;96609.03;;;10.82;100.00
11444;BME280;5778;47.856;12.154;2023-05-09T01:30:10;96601.56;;;10.79;100.00
11444;BME280;5778;47.856;12.154;2023-05-09T01:32:38;96597.78;;;10.75;100.00
11444;BME280;5778;47.856;12.154;2023-05-09T01:38:16;96593.59;;;10.79;100.00
11444;BME280;5778;47.856;12.154;2023-05-09T01:40:46;96592.63;;;10.68;100.00
11444;BME280;5778;47.856;12.154;2023-05-09T01:43:15;96589.34;;;10.61;100.00
11444;BME280;5778;47.856;12.154;2023-05-09T01:45:46;96594.13;;;10.59;100.00
11444;BME280;5778;47.856;12.154;2023-05-09T01:48:14;96595.91;;;10.54;100.00
11444;BME280;5778;47.856;12.154;2023-05-09T01:50:43;96594.84;;;10.55;100.00
11444;BME280;5778;47.856;12.154;2023-05-09T01:53:24;96597.25;;;10.56;100.00
11444;BME280;5778;47.856;12.154;2023-05-09T01:55:53;96593.25;;;10.54;100.00
11444;BME280;5778;47.856;12.154;2023-05-09T01:58:22;96588.91;;;10.48;100.00
11444;BME280;5778;47.856;12.154;2023-05-09T02:00:52;96588.00;;;10.42;100.00
11444;BME280;5778;47.856;12.154;2023-05-09T02:03:44;96585.13;;;10.44;100.00
11444;BME280;5778;47.856;12.154;2023-05-09T02:06:11;96592.69;;;10.35;100.00
11444;BME280;5778;47.856;12.154;2023-05-09T02:08:39;96581.91;;;10.25;100.00
11444;BME280;5778;47.856;12.154;2023-05-09T02:11:07;96578.53;;;10.30;100.00
11444;BME280;5778;47.856;12.154;2023-05-09T02:13:35;96583.28;;;10.28;100.00
11444;BME280;5778;47.856;12.154;2023-05-09T02:16:05;96589.19;;;10.13;100.00
11444;BME280;5778;47.856;12.154;2023-05-09T02:18:34;96591.44;;;10.05;100.00
11444;BME280;5778;47.856;12.154;2023-05-09T02:21:02;96595.69;;;10.06;100.00
11444;BME280;5778;47.856;12.154;2023-05-09T02:26:51;96583.19;;;9.90;100.00
11444;BME280;5778;47.856;12.154;2023-05-09T02:29:20;96576.91;;;9.96;100.00
11444;BME280;5778;47.856;12.154;2023-05-09T02:31:53;96574.31;;;10.01;100.00
11444;BME280;5778;47.856;12.154;2023-05-09T02:34:43;96572.84;;;10.05;100.00
11444;BME280;5778;47.856;12.154;2023-05-09T02:37:12;96565.69;;;10.05;100.00
11444;BME280;5778;47.856;12.154;2023-05-09T02:39:39;96573.03;;;10.03;100.00
11444;BME280;5778;47.856;12.154;2023-05-09T02:42:08;96574.31;;;10.01;100.00
11444;BME280;5778;47.856;12.154;2023-05-09T02:44:50;96579.25;;;9.92;100.00
11444;BME280;5778;47.856;12.154;2023-05-09T02:47:19;96580.53;;;9.90;100.00
11444;BME280;5778;47.856;12.154;2023-05-09T02:49:46;96578.84;;;9.84;100.00
11444;BME280;5778;47.856;12.154;2023-05-09T02:52:13;96573.53;;;9.84;100.00
11444;BME280;5778;47.856;12.154;2023-05-09T02:57:57;96566.34;;;9.68;100.00
11444;BME280;5778;47.856;12.154;2023-05-09T03:00:29;96580.03;;;9.60;100.00
11444;BME280;5778;47.856;12.154;2023-05-09T03:02:59;96569.69;;;9.47;100.00
11444;BME280;5778;47.856;12.154;2023-05-09T03:05:26;96568.03;;;9.57;100.00
11444;BME280;5778;47.856;12.154;2023-05-09T03:07:53;96571.00;;;9.61;100.00
11444;BME280;5778;47.856;12.154;2023-05-09T03:10:20;96570.53;;;9.64;100.00
11444;BME280;5778;47.856;12.154;2023-05-09T03:12:47;96577.69;;;9.63;100.00
11444;BME280;5778;47.856;12.154;2023-05-09T03:15:14;96568.41;;;9.49;100.00
11444;BME280;5778;47.856;12.154;2023-05-09T03:17:42;96568.19;;;9.51;100.00
11444;BME280;5778;47.856;12.154;2023-05-09T03:20:11;96565.44;;;9.46;100.00
11444;BME280;5778;47.856;12.154;2023-05-09T03:22:38;96568.00;;;9.41;100.00
11444;BME280;5778;47.856;12.154;2023-05-09T03:25:15;96570.81;;;9.34;100.00
11444;BME280;5778;47.856;12.154;2023-05-09T03:27:41;96562.38;;;9.37;100.00
11444;BME280;5778;47.856;12.154;2023-05-09T03:30:13;96559.84;;;9.31;100.00
11444;BME280;5778;47.856;12.154;2023-05-09T03:32:42;96561.53;;;9.20;100.00
11444;BME280;5778;47.856;12.154;2023-05-09T03:35:14;96563.25;;;9.15;100.00
11444;BME280;5778;47.856;12.154;2023-05-09T03:37:41;96565.41;;;9.01;100.00
11444;BME280;5778;47.856;12.154;2023-05-09T03:40:09;96561.09;;;9.12;100.00
11444;BME280;5778;47.856;12.154;2023-05-09T03:42:46;96570.66;;;9.13;100.00
11444;BME280;5778;47.856;12.154;2023-05-09T03:45:23;96559.94;;;9.08;100.00
11444;BME280;5778;47.856;12.154;2023-05-09T03:47:50;96569.66;;;9.02;100.00
11444;BME280;5778;47.856;12.154;2023-05-09T03:50:19;96568.84;;;9.02;100.00
11444;BME280;5778;47.856;12.154;2023-05-09T03:52:46;96570.94;;;9.00;100.00
11444;BME280;5778;47.856;12.154;2023-05-09T03:55:15;96564.16;;;8.92;100.00
11444;BME280;5778;47.856;12.154;2023-05-09T03:57:42;96565.44;;;8.90;100.00
11444;BME280;5778;47.856;12.154;2023-05-09T04:00:10;96569.59;;;8.86;100.00
11444;BME280;5778;47.856;12.154;2023-05-09T04:02:50;96564.28;;;8.86;100.00
11444;BME280;5778;47.856;12.154;2023-05-09T04:05:31;96561.53;;;8.81;100.00
11444;BME280;5778;47.856;12.154;2023-05-09T04:08:01;96564.06;;;8.87;100.00
11444;BME280;5778;47.856;12.154;2023-05-09T04:10:29;96563.84;;;8.89;100.00
11444;BME280;5778;47.856;12.154;2023-05-09T04:12:57;96564.22;;;8.69;100.00
11444;BME280;5778;47.856;12.154;2023-05-09T04:15:25;96566.50;;;8.77;100.00
11444;BME280;5778;47.856;12.154;2023-05-09T04:17:53;96562.03;;;8.66;100.00
11444;BME280;5778;47.856;12.154;2023-05-09T04:20:20;96559.25;;;8.73;100.00
11444;BME280;5778;47.856;12.154;2023-05-09T04:22:49;96559.59;;;8.76;100.00
11444;BME280;5778;47.856;12.154;2023-05-09T04:25:18;96567.31;;;8.78;100.00
11444;BME280;5778;47.856;12.154;2023-05-09T04:27:46;96561.88;;;8.84;100.00
11444;BME280;5778;47.856;12.154;2023-05-09T04:30:14;96563.13;;;8.93;100.00
11444;BME280;5778;47.856;12.154;2023-05-09T04:32:42;96563.56;;;9.02;100.00
11444;BME280;5778;47.856;12.154;2023-05-09T04:35:12;96568.97;;;9.07;100.00
11444;BME280;5778;47.856;12.154;2023-05-09T04:37:43;96568.13;;;9.06;100.00
11444;BME280;5778;47.856;12.154;2023-05-09T04:40:13;96564.50;;;8.96;100.00
11444;BME280;5778;47.856;12.154;2023-05-09T04:42:47;96556.75;;;9.06;100.00
11444;BME280;5778;47.856;12.154;2023-05-09T04:45:16;96563.44;;;8.97;100.00
11444;BME280;5778;47.856;12.154;2023-05-09T04:47:43;96566.59;;;8.94;100.00
11444;BME280;5778;47.856;12.154;2023-05-09T04:50:10;96565.84;;;9.10;100.00
11444;BME280;5778;47.856;12.154;2023-05-09T04:52:38;96558.16;;;9.25;100.00
11444;BME280;5778;47.856;12.154;2023-05-09T04:58:23;96560.63;;;9.43;100.00
11444;BME280;5778;47.856;12.154;2023-05-09T05:00:51;96563.44;;;9.53;100.00
11444;BME280;5778;47.856;12.154;2023-05-09T05:06:41;96557.13;;;9.87;100.00
11444;BME280;5778;47.856;12.154;2023-05-09T05:09:08;96553.34;;;10.16;100.00
11444;BME280;5778;47.856;12.154;2023-05-09T05:11:35;96545.66;;;10.36;100.00
11444;BME280;5778;47.856;12.154;2023-05-09T05:14:30;96546.97;;;10.55;100.00
11444;BME280;5778;47.856;12.154;2023-05-09T05:16:57;96542.03;;;10.63;100.00
11444;BME280;5778;47.856;12.154;2023-05-09T05:19:24;96544.41;;;10.81;100.00
11444;BME280;5778;47.856;12.154;2023-05-09T05:21:50;96542.78;;;11.02;100.00
11444;BME280;5778;47.856;12.154;2023-05-09T05:24:21;96537.44;;;11.23;100.00
11444;BME280;5778;47.856;12.154;2023-05-09T05:26:48;96536.78;;;11.38;100.00
11444;BME280;5778;47.856;12.154;2023-05-09T05:29:16;96538.47;;;11.44;100.00
11444;BME280;5778;47.856;12.154;2023-05-09T05:31:45;96533.78;;;11.56;100.00
11444;BME280;5778;47.856;12.154;2023-05-09T05:34:16;96535.03;;;11.75;100.00
11444;BME280;5778;47.856;12.154;2023-05-09T05:36:44;96530.31;;;11.87;100.00
11444;BME280;5778;47.856;12.154;2023-05-09T05:39:12;96540.00;;;11.98;100.00
11444;BME280;5778;47.856;12.154;2023-05-09T05:41:39;96533.69;;;12.09;100.00
11444;BME280;5778;47.856;12.154;2023-05-09T05:44:07;96536.63;;;12.07;100.00
11444;BME280;5778;47.856;12.154;2023-05-09T05:46:34;96535.19;;;11.95;100.00
11444;BME280;5778;47.856;12.154;2023-05-09T05:49:03;96530.41;;;11.97;100.00
11444;BME280;5778;47.856;12.154;2023-05-09T05:51:32;96523.88;;;12.14;100.00
11444;BME280;5778;47.856;12.154;2023-05-09T05:54:03;96529.19;;;12.14;100.00
11444;BME280;5778;47.856;12.154;2023-05-09T05:56:32;96529.78;;;12.21;100.00
11444;BME280;5778;47.856;12.154;2023-05-09T05:59:00;96537.66;;;12.43;100.00
11444;BME280;5778;47.856;12.154;2023-05-09T06:01:27;96528.72;;;12.64;100.00
11444;BME280;5778;47.856;12.154;2023-05-09T06:03:55;96534.56;;;12.61;100.00
11444;BME280;5778;47.856;12.154;2023-05-09T06:06:26;96536.66;;;12.54;100.00
11444;BME280;5778;47.856;12.154;2023-05-09T06:08:54;96536.16;;;12.62;100.00
11444;BME280;5778;47.856;12.154;2023-05-09T06:11:22;96533.06;;;12.85;100.00
11444;BME280;5778;47.856;12.154;2023-05-09T06:13:49;96529.69;;;13.04;100.00
11444;BME280;5778;47.856;12.154;2023-05-09T06:16:16;96531.06;;;13.17;100.00
11444;BME280;5778;47.856;12.154;2023-05-09T06:18:43;96526.00;;;13.20;100.00
11444;BME280;5778;47.856;12.154;2023-05-09T06:21:09;96519.91;;;13.30;100.00
11444;BME280;5778;47.856;12.154;2023-05-09T06:23:38;96519.63;;;13.21;100.00
11444;BME280;5778;47.856;12.154;2023-05-09T06:26:05;96514.56;;;13.35;100.00
11444;BME280;5778;47.856;12.154;2023-05-09T06:28:32;96512.16;;;13.28;100.00
11444;BME280;5778;47.856;12.154;2023-05-09T06:30:59;96510.31;;;13.59;100.00
11444;BME280;5778;47.856;12.154;2023-05-09T06:33:26;96511.91;;;13.50;100.00
11444;BME280;5778;47.856;12.154;2023-05-09T06:35:53;96507.13;;;13.72;100.00
11444;BME280;5778;47.856;12.154;2023-05-09T06:38:20;96505.25;;;13.87;100.00
11444;BME280;5778;47.856;12.154;2023-05-09T06:40:48;96504.72;;;14.00;100.00
11444;BME280;5778;47.856;12.154;2023-05-09T06:43:15;96501.47;;;14.18;100.00
11444;BME280;5778;47.856;12.154;2023-05-09T06:45:42;96492.13;;;14.16;100.00
11444;BME280;5778;47.856;12.154;2023-05-09T06:48:09;96493.47;;;14.33;100.00
11444;BME280;5778;47.856;12.154;2023-05-09T06:50:37;96492.94;;;14.31;100.00
11444;BME280;5778;47.856;12.154;2023-05-09T06:53:04;96497.66;;;14.64;100.00
11444;BME280;5778;47.856;12.154;2023-05-09T06:55:31;96501.25;;;14.25;100.00
11444;BME280;5778;47.856;12.154;2023-05-09T06:57:59;96499.84;;;14.52;100.00
11444;BME280;5778;47.856;12.154;2023-05-09T07:00:26;96498.53;;;14.40;100.00
11444;BME280;5778;47.856;12.154;2023-05-09T07:02:53;96485.91;;;14.55;100.00
11444;BME280;5778;47.856;12.154;2023-05-09T07:05:20;96491.81;;;14.57;100.00
11444;BME280;5778;47.856;12.154;2023-05-09T07:07:47;96479.06;;;14.98;100.00
11444;BME280;5778;47.856;12.154;2023-05-09T07:10:13;96467.94;;;15.19;100.00
11444;BME280;5778;47.856;12.154;2023-05-09T07:12:40;96463.91;;;15.22;100.00
11444;BME280;5778;47.856;12.154;2023-05-09T07:15:10;96465.16;;;15.44;100.00
11444;BME280;5778;47.856;12.154;2023-05-09T07:17:37;96469.06;;;15.57;100.00
11444;BME280;5778;47.856;12.154;2023-05-09T07:20:06;96464.34;;;15.44;100.00
11444;BME280;5778;47.856;12.154;2023-05-09T07:22:33;96462.84;;;15.23;100.00
11444;BME280;5778;47.856;12.154;2023-05-09T07:25:00;96456.44;;;15.62;100.00
11444;BME280;5778;47.856;12.154;2023-05-09T07:27:27;96451.00;;;15.72;100.00
11444;BME280;5778;47.856;12.154;2023-05-09T07:29:54;96457.66;;;15.41;100.00
11444;BME280;5778;47.856;12.154;2023-05-09T07:32:23;96452.91;;;15.67;100.00
11444;BME280;5778;47.856;12.154;2023-05-09T07:34:51;96456.31;;;16.06;100.00
11444;BME280;5778;47.856;12.154;2023-05-09T07:37:18;96456.56;;;16.33;100.00
11444;BME280;5778;47.856;12.154;2023-05-09T07:39:45;96453.03;;;16.42;100.00
11444;BME280;5778;47.856;12.154;2023-05-09T07:42:12;96461.44;;;16.31;100.00
11444;BME280;5778;47.856;12.154;2023-05-09T07:44:40;96452.53;;;16.35;100.00
11444;BME280;5778;47.856;12.154;2023-05-09T07:47:07;96437.88;;;16.51;100.00
11444;BME280;5778;47.856;12.154;2023-05-09T07:49:36;96433.00;;;16.77;100.00
11444;BME280;5778;47.856;12.154;2023-05-09T07:52:04;96426.06;;;16.94;100.00
11444;BME280;5778;47.856;12.154;2023-05-09T07:54:31;96423.34;;;16.76;100.00
11444;BME280;5778;47.856;12.154;2023-05-09T07:57:01;96428.59;;;16.86;100.00
11444;BME280;5778;47.856;12.154;2023-05-09T07:59:28;96417.66;;;17.19;100.00
11444;BME280;5778;47.856;12.154;2023-05-09T08:01:55;96415.34;;;17.50;100.00
11444;BME280;5778;47.856;12.154;2023-05-09T08:04:25;96420.69;;;17.31;100.00
11444;BME280;5778;47.856;12.154;2023-05-09T08:06:53;96415.84;;;17.52;100.00
11444;BME280;5778;47.856;12.154;2023-05-09T08:09:20;96415.00;;;17.70;100.00
11444;BME280;5778;47.856;12.154;2023-05-09T08:11:47;96411.56;;;17.83;100.00
11444;BME280;5778;47.856;12.154;2023-05-09T08:14:14;96415.34;;;17.82;100.00
11444;BME280;5778;47.856;12.154;2023-05-09T08:16:40;96407.81;;;17.65;100.00
11444;BME280;5778;47.856;12.154;2023-05-09T08:19:08;96408.22;;;18.18;100.00
11444;BME280;5778;47.856;12.154;2023-05-09T08:21:35;96402.25;;;17.25;100.00
11444;BME280;5778;47.856;12.154;2023-05-09T08:24:04;96397.28;;;17.32;100.00
11444;BME280;5778;47.856;12.154;2023-05-09T08:26:32;96390.03;;;17.51;100.00
11444;BME280;5778;47.856;12.154;2023-05-09T08:28:59;96384.44;;;17.29;100.00
11444;BME280;5778;47.856;12.154;2023-05-09T08:31:26;96390.09;;;17.64;100.00
11444;BME280;5778;47.856;12.154;2023-05-09T08:33:53;96376.47;;;17.74;100.00
11444;BME280;5778;47.856;12.154;2023-05-09T08:36:20;96373.84;;;17.56;100.00
11444;BME280;5778;47.856;12.154;2023-05-09T08:38:47;96378.59;;;17.59;100.00
11444;BME280;5778;47.856;12.154;2023-05-09T08:41:16;96371.16;;;17.56;100.00
11444;BME280;5778;47.856;12.154;2023-05-09T08:43:43;96376.16;;;17.62;100.00
11444;BME280;5778;47.856;12.154;2023-05-09T08:46:10;96379.03;;;17.66;100.00
11444;BME280;5778;47.856;12.154;2023-05-09T08:48:38;96375.72;;;18.01;100.00
11444;BME280;5778;47.856;12.154;2023-05-09T08:51:06;96370.38;;;18.55;100.00
11444;BME280;5778;47.856;12.154;2023-05-09T08:53:34;96369.06;;;18.12;100.00
11444;BME280;5778;47.856;12.154;2023-05-09T08:56:02;96362.47;;;18.31;100.00
11444;BME280;5778;47.856;12.154;2023-05-09T08:58:32;96366.00;;;18.59;100.00
11444;BME280;5778;47.856;12.154;2023-05-09T09:01:01;96364.50;;;18.53;100.00
11444;BME280;5778;47.856;12.154;2023-05-09T09:03:31;96356.44;;;18.39;100.00
11444;BME280;5778;47.856;12.154;2023-05-09T09:05:58;96348.03;;;18.27;100.00
11444;BME280;5778;47.856;12.154;2023-05-09T09:08:26;96349.66;;;18.42;100.00
11444;BME280;5778;47.856;12.154;2023-05-09T09:10:53;96343.03;;;19.10;100.00
11444;BME280;5778;47.856;12.154;2023-05-09T09:13:21;96335.06;;;18.70;100.00
11444;BME280;5778;47.856;12.154;2023-05-09T09:15:52;96338.16;;;18.99;100.00
11444;BME280;5778;47.856;12.154;2023-05-09T09:18:21;96322.13;;;19.16;100.00
11444;BME280;5778;47.856;12.154;2023-05-09T09:20:52;96317.16;;;19.45;100.00
11444;BME280;5778;47.856;12.154;2023-05-09T09:23:23;96312.72;;;19.27;100.00
11444;BME280;5778;47.856;12.154;2023-05-09T09:25:56;96304.91;;;20.00;100.00
11444;BME280;5778;47.856;12.154;2023-05-09T09:28:23;96304.47;;;19.76;100.00
11444;BME280;5778;47.856;12.154;2023-05-09T09:30:52;96292.41;;;20.12;100.00
11444;BME280;5778;47.856;12.154;2023-05-09T09:33:19;96292.78;;;20.19;100.00
11444;BME280;5778;47.856;12.154;2023-05-09T09:35:48;96284.47;;;20.72;100.00
11444;BME280;5778;47.856;12.154;2023-05-09T09:38:16;96278.25;;;20.88;100.00
11444;BME280;5778;47.856;12.154;2023-05-09T09:40:52;96281.63;;;21.02;100.00
11444;BME280;5778;47.856;12.154;2023-05-09T09:43:20;96272.06;;;21.22;100.00
11444;BME280;5778;47.856;12.154;2023-05-09T09:45:54;96272.81;;;21.56;100.00
11444;BME280;5778;47.856;12.154;2023-05-09T09:48:23;96275.66;;;21.60;100.00
11444;BME280;5778;47.856;12.154;2023-05-09T09:50:50;96269.59;;;21.80;98.75
11444;BME280;5778;47.856;12.154;2023-05-09T09:53:19;96262.69;;;21.11;97.02
11444;BME280;5778;47.856;12.154;2023-05-09T09:55:51;96258.06;;;21.37;100.00
11444;BME280;5778;47.856;12.154;2023-05-09T09:58:19;96258.94;;;21.75;100.00
11444;BME280;5778;47.856;12.154;2023-05-09T10:01:03;96258.78;;;21.63;95.12
11444;BME280;5778;47.856;12.154;2023-05-09T10:03:34;96254.41;;;21.33;100.00
11444;BME280;5778;47.856;12.154;2023-05-09T10:06:01;96243.13;;;20.97;100.00
11444;BME280;5778;47.856;12.154;2023-05-09T10:08:28;96245.34;;;21.20;100.00
11444;BME280;5778;47.856;12.154;2023-05-09T10:10:56;96240.06;;;21.41;100.00
11444;BME280;5778;47.856;12.154;2023-05-09T10:13:24;96231.34;;;21.90;100.00
11444;BME280;5778;47.856;12.154;2023-05-09T10:15:52;96233.34;;;22.01;100.00
11444;BME280;5778;47.856;12.154;2023-05-09T10:18:24;96222.28;;;22.44;100.00
11444;BME280;5778;47.856;12.154;2023-05-09T10:20:52;96215.44;;;22.67;100.00
11444;BME280;5778;47.856;12.154;2023-05-09T10:23:19;96204.16;;;22.97;95.87
11444;BME280;5778;47.856;12.154;2023-05-09T10:25:50;96208.63;;;23.34;93.61
11444;BME280;5778;47.856;12.154;2023-05-09T10:28:22;96212.44;;;22.80;90.79
11444;BME280;5778;47.856;12.154;2023-05-09T10:33:25;96198.34;;;23.52;79.75
11444;BME280;5778;47.856;12.154;2023-05-09T10:35:57;96191.72;;;23.73;79.07
11444;BME280;5778;47.856;12.154;2023-05-09T10:38:24;96191.28;;;24.19;73.50
11444;BME280;5778;47.856;12.154;2023-05-09T10:40:52;96187.38;;;23.48;78.01
11444;BME280;5778;47.856;12.154;2023-05-09T10:43:19;96181.31;;;23.87;74.31
11444;BME280;5778;47.856;12.154;2023-05-09T10:45:48;96173.84;;;24.08;72.10
11444;BME280;5778;47.856;12.154;2023-05-09T10:48:16;96176.00;;;23.91;86.79
11444;BME280;5778;47.856;12.154;2023-05-09T10:50:45;96171.50;;;23.95;81.13
11444;BME280;5778;47.856;12.154;2023-05-09T10:53:12;96170.75;;;24.34;81.54
11444;BME280;5778;47.856;12.154;2023-05-09T10:55:50;96169.22;;;24.21;65.57
11444;BME280;5778;47.856;12.154;2023-05-09T10:58:23;96161.97;;;24.25;66.57
11444;BME280;5778;47.856;12.154;2023-05-09T11:00:52;96156.16;;;24.26;67.51
11444;BME280;5778;47.856;12.154;2023-05-09T11:03:20;96146.16;;;24.66;69.06
11444;BME280;5778;47.856;12.154;2023-05-09T11:05:53;96142.06;;;24.88;64.68
11444;BME280;5778;47.856;12.154;2023-05-09T11:08:22;96139.91;;;24.66;64.24
11444;BME280;5778;47.856;12.154;2023-05-09T11:10:51;96137.59;;;24.80;63.83
11444;BME280;5778;47.856;12.154;2023-05-09T11:13:19;96130.81;;;24.74;65.71
11444;BME280;5778;47.856;12.154;2023-05-09T11:16:05;96124.25;;;24.75;60.65
11444;BME280;5778;47.856;12.154;2023-05-09T11:18:33;96124.81;;;24.96;62.12
11444;BME280;5778;47.856;12.154;2023-05-09T11:21:07;96123.78;;;25.16;61.79
11444;BME280;5778;47.856;12.154;2023-05-09T11:23:34;96124.56;;;25.01;56.99
11444;BME280;5778;47.856;12.154;2023-05-09T11:26:04;96110.16;;;24.85;56.79
11444;BME280;5778;47.856;12.154;2023-05-09T11:28:33;96106.22;;;25.13;57.68
11444;BME280;5778;47.856;12.154;2023-05-09T11:31:10;96096.47;;;25.40;59.03
11444;BME280;5778;47.856;12.154;2023-05-09T11:33:39;96097.78;;;24.60;60.81
11444;BME280;5778;47.856;12.154;2023-05-09T11:36:21;96092.75;;;24.74;59.64
11444;BME280;5778;47.856;12.154;2023-05-09T11:39:03;96094.09;;;24.95;60.04
11444;BME280;5778;47.856;12.154;2023-05-09T11:41:37;96088.28;;;25.40;55.16
11444;BME280;5778;47.856;12.154;2023-05-09T11:46:56;96082.13;;;25.43;58.26
11444;BME280;5778;47.856;12.154;2023-05-09T11:49:23;96068.91;;;25.76;58.71
11444;BME280;5778;47.856;12.154;2023-05-09T11:51:51;96058.59;;;25.50;60.55
11444;BME280;5778;47.856;12.154;2023-05-09T11:54:18;96060.25;;;25.08;57.29
11444;BME280;5778;47.856;12.154;2023-05-09T11:56:45;96050.75;;;25.49;59.33
11444;BME280;5778;47.856;12.154;2023-05-09T11:59:12;96050.44;;;25.19;61.97
11444;BME280;5778;47.856;12.154;2023-05-09T12:01:40;96046.28;;;25.10;61.46
11444;BME280;5778;47.856;12.154;2023-05-09T12:04:07;96043.03;;;25.20;66.50
11444;BME280;5778;47.856;12.154;2023-05-09T12:06:34;96046.06;;;25.30;63.96
11444;BME280;5778;47.856;12.154;2023-05-09T12:09:03;96037.13;;;25.02;66.35
11444;BME280;5778;47.856;12.154;2023-05-09T12:11:31;96031.72;;;25.49;62.02
11444;BME280;5778;47.856;12.154;2023-05-09T12:13:59;96024.22;;;25.61;61.44
11444;BME280;5778;47.856;12.154;2023-05-09T12:16:26;96027.88;;;25.50;62.47
11444;BME280;5778;47.856;12.154;2023-05-09T12:18:53;96024.22;;;25.77;57.31
11444;BME280;5778;47.856;12.154;2023-05-09T12:21:20;96021.00;;;25.56;55.77
11444;BME280;5778;47.856;12.154;2023-05-09T12:23:48;96020.41;;;26.16;56.44
11444;BME280;5778;47.856;12.154;2023-05-09T12:26:16;96008.91;;;26.07;55.14
11444;BME280;5778;47.856;12.154;2023-05-09T12:28:43;95996.38;;;26.02;55.47
11444;BME280;5778;47.856;12.154;2023-05-09T12:31:10;95993.28;;;26.23;54.85
11444;BME280;5778;47.856;12.154;2023-05-09T12:33:38;95993.50;;;25.61;55.15
11444;BME280;5778;47.856;12.154;2023-05-09T12:36:07;95994.78;;;26.20;53.71
11444;BME280;5778;47.856;12.154;2023-05-09T12:38:35;95985.03;;;26.57;53.61
11444;BME280;5778;47.856;12.154;2023-05-09T12:41:03;95981.97;;;26.21;51.79
11444;BME280;5778;47.856;12.154;2023-05-09T12:43:34;95980.25;;;26.96;51.92
11444;BME280;5778;47.856;12.154;2023-05-09T12:46:02;95977.19;;;26.97;52.78
11444;BME280;5778;47.856;12.154;2023-05-09T12:48:33;95976.88;;;26.80;49.94
11444;BME280;5778;47.856;12.154;2023-05-09T12:51:02;95976.03;;;26.76;50.91
11444;BME280;5778;47.856;12.154;2023-05-09T12:53:29;95965.22;;;26.83;49.45
11444;BME280;5778;47.856;12.154;2023-05-09T12:56:00;95960.28;;;26.88;49.42
11444;BME280;5778;47.856;12.154;2023-05-09T12:58:28;95950.56;;;26.91;47.87
11444;BME280;5778;47.856;12.154;2023-05-09T13:00:58;95953.47;;;27.24;48.41
11444;BME280;5778;47.856;12.154;2023-05-09T13:03:26;95945.28;;;27.24;46.90
11444;BME280;5778;47.856;12.154;2023-05-09T13:05:56;95944.44;;;27.46;46.05
11444;BME280;5778;47.856;12.154;2023-05-09T13:08:24;95938.09;;;27.38;46.24
11444;BME280;5778;47.856;12.154;2023-05-09T13:10:51;95931.56;;;26.98;45.93
11444;BME280;5778;47.856;12.154;2023-05-09T13:13:19;95933.41;;;26.90;46.74
11444;BME280;5778;47.856;12.154;2023-05-09T13:15:47;95926.53;;;27.22;44.35
11444;BME280;5778;47.856;12.154;2023-05-09T13:18:16;95926.31;;;26.86;46.60
11444;BME280;5778;47.856;12.154;2023-05-09T13:20:42;95919.03;;;26.93;46.86
11444;BME280;5778;47.856;12.154;2023-05-09T13:23:09;95915.56;;;26.74;44.74
11444;BME280;5778;47.856;12.154;2023-05-09T13:25:36;95909.75;;;26.98;45.59
11444;BME280;5778;47.856;12.154;2023-05-09T13:28:03;95904.22;;;26.94;45.96
11444;BME280;5778;47.856;12.154;2023-05-09T13:30:30;95900.34;;;27.18;44.24
11444;BME280;5778;47.856;12.154;2023-05-09T13:32:57;95892.56;;;27.46;42.46